sensor_id;sensor_type;location;lat;lon;timestamp;P1;durP1;ratioP1;P2;durP2;ratioP2
27895;SDS011;15241;48.374;10.876;2022-12-18T00:00:15;51.30;;;22.95;;
27895;SDS011;15241;48.374;10.876;2022-12-18T00:05:14;58.15;;;24.27;;
27895;SDS011;15241;48.374;10.876;2022-12-18T00:10:13;43.85;;;22.65;;
27895;SDS011;15241;48.374;10.876;2022-12-18T00:15:12;43.48;;;19.95;;
27895;SDS011;15241;48.374;10.876;2022-12-18T00:20:11;49.40;;;20.92;;
27895;SDS011;15241;48.374;10.876;2022-12-18T00:25:10;47.65;;;21.42;;
27895;SDS011;15241;48.374;10.876;2022-12-18T00:30:11;44.55;;;20.25;;
27895;SDS011;15241;48.374;10.876;2022-12-18T00:35:10;43.17;;;19.32;;
27895;SDS011;15241;48.374;10.876;2022-12-18T00:40:10;45.92;;;20.70;;
27895;SDS011;15241;48.374;10.876;2022-12-18T00:45:10;49.98;;;21.73;;
27895;SDS011;15241;48.374;10.876;2022-12-18T00:50:09;44.05;;;20.05;;
27895;SDS011;15241;48.374;10.876;2022-12-18T00:55:09;47.83;;;20.23;;
27895;SDS011;15241;48.374;10.876;2022-12-18T01:00:10;43.73;;;19.55;;
27895;SDS011;15241;48.374;10.876;2022-12-18T01:05:11;43.65;;;19.95;;
27895;SDS011;15241;48.374;10.876;2022-12-18T01:10:11;42.80;;;19.62;;
27895;SDS011;15241;48.374;10.876;2022-12-18T01:15:11;48.08;;;21.00;;
27895;SDS011;15241;48.374;10.876;2022-12-18T01:20:12;42.48;;;19.27;;
27895;SDS011;15241;48.374;10.876;2022-12-18T01:25:11;46.75;;;19.95;;
27895;SDS011;15241;48.374;10.876;2022-12-18T01:30:11;48.60;;;20.95;;
27895;SDS011;15241;48.374;10.876;2022-12-18T01:35:10;45.25;;;20.02;;
27895;SDS011;15241;48.374;10.876;2022-12-18T01:40:10;47.25;;;18.87;;
27895;SDS011;15241;48.374;10.876;2022-12-18T01:45:24;53.68;;;21.97;;
27895;SDS011;15241;48.374;10.876;2022-12-18T01:50:24;51.98;;;20.77;;
27895;SDS011;15241;48.374;10.876;2022-12-18T01:55:28;51.80;;;21.73;;
27895;SDS011;15241;48.374;10.876;2022-12-18T02:00:28;52.98;;;22.17;;
27895;SDS011;15241;48.374;10.876;2022-12-18T02:05:33;53.28;;;22.85;;
27895;SDS011;15241;48.374;10.876;2022-12-18T02:10:37;46.83;;;18.85;;
27895;SDS011;15241;48.374;10.876;2022-12-18T02:15:42;52.20;;;21.80;;
27895;SDS011;15241;48.374;10.876;2022-12-18T02:20:43;50.30;;;22.87;;
27895;SDS011;15241;48.374;10.876;2022-12-18T02:25:54;56.58;;;22.73;;
27895;SDS011;15241;48.374;10.876;2022-12-18T02:31:13;55.45;;;22.62;;
27895;SDS011;15241;48.374;10.876;2022-12-18T02:36:13;51.58;;;20.30;;
27895;SDS011;15241;48.374;10.876;2022-12-18T02:41:14;49.42;;;21.42;;
27895;SDS011;15241;48.374;10.876;2022-12-18T02:46:28;47.93;;;21.68;;
27895;SDS011;15241;48.374;10.876;2022-12-18T02:51:32;48.40;;;21.02;;
27895;SDS011;15241;48.374;10.876;2022-12-18T02:56:33;48.92;;;19.67;;
27895;SDS011;15241;48.374;10.876;2022-12-18T03:01:35;46.75;;;20.20;;
27895;SDS011;15241;48.374;10.876;2022-12-18T03:06:37;44.35;;;21.00;;
27895;SDS011;15241;48.374;10.876;2022-12-18T03:11:39;47.90;;;19.23;;
27895;SDS011;15241;48.374;10.876;2022-12-18T03:16:40;44.77;;;17.98;;
27895;SDS011;15241;48.374;10.876;2022-12-18T03:21:42;43.63;;;17.70;;
27895;SDS011;15241;48.374;10.876;2022-12-18T03:26:50;44.63;;;17.40;;
27895;SDS011;15241;48.374;10.876;2022-12-18T03:31:53;41.08;;;16.95;;
27895;SDS011;15241;48.374;10.876;2022-12-18T03:36:54;40.50;;;18.60;;
27895;SDS011;15241;48.374;10.876;2022-12-18T03:41:55;43.02;;;17.82;;
27895;SDS011;15241;48.374;10.876;2022-12-18T03:52:15;37.95;;;16.40;;
27895;SDS011;15241;48.374;10.876;2022-12-18T03:57:18;38.25;;;16.17;;
27895;SDS011;15241;48.374;10.876;2022-12-18T04:02:18;39.63;;;16.85;;
27895;SDS011;15241;48.374;10.876;2022-12-18T04:07:20;42.05;;;16.77;;
27895;SDS011;15241;48.374;10.876;2022-12-18T04:12:20;45.58;;;17.17;;
27895;SDS011;15241;48.374;10.876;2022-12-18T04:17:21;41.25;;;17.17;;
27895;SDS011;15241;48.374;10.876;2022-12-18T04:22:20;40.65;;;17.60;;
27895;SDS011;15241;48.374;10.876;2022-12-18T04:27:19;37.80;;;16.97;;
27895;SDS011;15241;48.374;10.876;2022-12-18T04:32:19;37.17;;;16.60;;
27895;SDS011;15241;48.374;10.876;2022-12-18T04:37:18;39.92;;;15.43;;
27895;SDS011;15241;48.374;10.876;2022-12-18T04:42:17;41.30;;;15.55;;
27895;SDS011;15241;48.374;10.876;2022-12-18T04:47:16;41.70;;;16.73;;
27895;SDS011;15241;48.374;10.876;2022-12-18T04:52:14;43.23;;;17.55;;
27895;SDS011;15241;48.374;10.876;2022-12-18T04:57:13;40.30;;;17.20;;
27895;SDS011;15241;48.374;10.876;2022-12-18T05:02:12;40.78;;;16.97;;
27895;SDS011;15241;48.374;10.876;2022-12-18T05:07:11;40.15;;;17.23;;
27895;SDS011;15241;48.374;10.876;2022-12-18T05:12:10;47.13;;;17.27;;
27895;SDS011;15241;48.374;10.876;2022-12-18T05:17:09;48.20;;;17.95;;
27895;SDS011;15241;48.374;10.876;2022-12-18T05:22:08;48.13;;;17.70;;
27895;SDS011;15241;48.374;10.876;2022-12-18T05:27:07;43.60;;;16.97;;
27895;SDS011;15241;48.374;10.876;2022-12-18T05:32:06;43.15;;;18.92;;
27895;SDS011;15241;48.374;10.876;2022-12-18T05:37:05;47.27;;;18.60;;
27895;SDS011;15241;48.374;10.876;2022-12-18T05:42:04;43.38;;;17.98;;
27895;SDS011;15241;48.374;10.876;2022-12-18T05:47:03;44.53;;;18.82;;
27895;SDS011;15241;48.374;10.876;2022-12-18T05:52:02;42.53;;;18.55;;
27895;SDS011;15241;48.374;10.876;2022-12-18T05:57:01;46.15;;;18.35;;
27895;SDS011;15241;48.374;10.876;2022-12-18T06:02:00;40.48;;;17.52;;
27895;SDS011;15241;48.374;10.876;2022-12-18T06:06:59;42.73;;;18.10;;
27895;SDS011;15241;48.374;10.876;2022-12-18T06:11:58;45.15;;;18.92;;
27895;SDS011;15241;48.374;10.876;2022-12-18T06:16:57;40.78;;;16.27;;
27895;SDS011;15241;48.374;10.876;2022-12-18T06:21:57;45.38;;;18.87;;
27895;SDS011;15241;48.374;10.876;2022-12-18T06:26:56;48.05;;;19.20;;
27895;SDS011;15241;48.374;10.876;2022-12-18T06:31:55;42.27;;;17.60;;
27895;SDS011;15241;48.374;10.876;2022-12-18T06:36:54;42.25;;;17.35;;
27895;SDS011;15241;48.374;10.876;2022-12-18T06:41:53;37.13;;;15.80;;
27895;SDS011;15241;48.374;10.876;2022-12-18T06:46:52;46.77;;;18.00;;
27895;SDS011;15241;48.374;10.876;2022-12-18T06:51:51;47.58;;;18.73;;
27895;SDS011;15241;48.374;10.876;2022-12-18T06:56:50;38.50;;;17.00;;
27895;SDS011;15241;48.374;10.876;2022-12-18T07:01:49;42.83;;;17.27;;
27895;SDS011;15241;48.374;10.876;2022-12-18T07:06:47;39.42;;;18.00;;
27895;SDS011;15241;48.374;10.876;2022-12-18T07:11:46;53.23;;;18.70;;
27895;SDS011;15241;48.374;10.876;2022-12-18T07:16:46;41.40;;;16.75;;
27895;SDS011;15241;48.374;10.876;2022-12-18T07:21:44;44.30;;;16.57;;
27895;SDS011;15241;48.374;10.876;2022-12-18T07:26:45;41.42;;;16.45;;
27895;SDS011;15241;48.374;10.876;2022-12-18T07:31:44;41.25;;;17.00;;
27895;SDS011;15241;48.374;10.876;2022-12-18T07:36:45;39.38;;;16.00;;
27895;SDS011;15241;48.374;10.876;2022-12-18T07:41:44;38.02;;;16.10;;
27895;SDS011;15241;48.374;10.876;2022-12-18T07:46:45;38.28;;;16.62;;
27895;SDS011;15241;48.374;10.876;2022-12-18T07:51:44;36.38;;;15.30;;
27895;SDS011;15241;48.374;10.876;2022-12-18T07:56:43;39.42;;;16.52;;
27895;SDS011;15241;48.374;10.876;2022-12-18T08:01:42;36.58;;;16.02;;
27895;SDS011;15241;48.374;10.876;2022-12-18T08:06:41;38.40;;;15.53;;
27895;SDS011;15241;48.374;10.876;2022-12-18T08:11:40;37.38;;;16.67;;
27895;SDS011;15241;48.374;10.876;2022-12-18T08:21:57;37.30;;;14.83;;
27895;SDS011;15241;48.374;10.876;2022-12-18T08:26:57;37.28;;;15.48;;
27895;SDS011;15241;48.374;10.876;2022-12-18T08:31:56;39.92;;;16.57;;
27895;SDS011;15241;48.374;10.876;2022-12-18T08:36:58;38.73;;;15.80;;
27895;SDS011;15241;48.374;10.876;2022-12-18T08:41:58;40.83;;;16.48;;
27895;SDS011;15241;48.374;10.876;2022-12-18T08:46:57;33.42;;;15.15;;
27895;SDS011;15241;48.374;10.876;2022-12-18T08:51:56;36.50;;;16.45;;
27895;SDS011;15241;48.374;10.876;2022-12-18T08:56:55;35.48;;;15.72;;
27895;SDS011;15241;48.374;10.876;2022-12-18T09:01:54;35.92;;;15.80;;
27895;SDS011;15241;48.374;10.876;2022-12-18T09:06:56;41.28;;;15.60;;
27895;SDS011;15241;48.374;10.876;2022-12-18T09:11:55;34.83;;;15.15;;
27895;SDS011;15241;48.374;10.876;2022-12-18T09:16:54;33.70;;;15.08;;
27895;SDS011;15241;48.374;10.876;2022-12-18T09:21:52;35.83;;;16.25;;
27895;SDS011;15241;48.374;10.876;2022-12-18T09:26:53;35.28;;;16.65;;
27895;SDS011;15241;48.374;10.876;2022-12-18T09:31:52;31.70;;;15.30;;
27895;SDS011;15241;48.374;10.876;2022-12-18T09:36:51;37.28;;;16.35;;
27895;SDS011;15241;48.374;10.876;2022-12-18T09:41:51;36.55;;;16.67;;
27895;SDS011;15241;48.374;10.876;2022-12-18T09:46:59;42.70;;;16.70;;
27895;SDS011;15241;48.374;10.876;2022-12-18T09:52:11;36.10;;;15.68;;
27895;SDS011;15241;48.374;10.876;2022-12-18T09:57:14;38.20;;;17.40;;
27895;SDS011;15241;48.374;10.876;2022-12-18T10:02:15;34.53;;;16.87;;
27895;SDS011;15241;48.374;10.876;2022-12-18T10:07:19;40.45;;;17.60;;
27895;SDS011;15241;48.374;10.876;2022-12-18T10:12:29;36.55;;;16.55;;
27895;SDS011;15241;48.374;10.876;2022-12-18T10:17:32;36.08;;;16.77;;
27895;SDS011;15241;48.374;10.876;2022-12-18T10:22:37;39.45;;;17.85;;
27895;SDS011;15241;48.374;10.876;2022-12-18T10:27:39;41.33;;;17.73;;
27895;SDS011;15241;48.374;10.876;2022-12-18T10:32:39;35.63;;;16.87;;
27895;SDS011;15241;48.374;10.876;2022-12-18T10:37:38;38.78;;;18.40;;
27895;SDS011;15241;48.374;10.876;2022-12-18T10:42:47;40.50;;;17.80;;
27895;SDS011;15241;48.374;10.876;2022-12-18T10:47:54;37.28;;;17.55;;
27895;SDS011;15241;48.374;10.876;2022-12-18T10:52:57;36.23;;;17.50;;
27895;SDS011;15241;48.374;10.876;2022-12-18T10:57:57;37.80;;;17.40;;
27895;SDS011;15241;48.374;10.876;2022-12-18T11:03:29;41.08;;;17.32;;
27895;SDS011;15241;48.374;10.876;2022-12-18T11:08:29;39.67;;;17.07;;
27895;SDS011;15241;48.374;10.876;2022-12-18T11:13:29;38.40;;;18.10;;
27895;SDS011;15241;48.374;10.876;2022-12-18T11:18:29;40.80;;;19.12;;
27895;SDS011;15241;48.374;10.876;2022-12-18T11:23:30;38.13;;;17.62;;
27895;SDS011;15241;48.374;10.876;2022-12-18T11:28:37;38.23;;;16.70;;
27895;SDS011;15241;48.374;10.876;2022-12-18T11:33:37;36.20;;;16.57;;
27895;SDS011;15241;48.374;10.876;2022-12-18T11:38:39;35.03;;;16.40;;
27895;SDS011;15241;48.374;10.876;2022-12-18T11:43:41;33.23;;;15.83;;
27895;SDS011;15241;48.374;10.876;2022-12-18T11:48:44;31.00;;;15.55;;
27895;SDS011;15241;48.374;10.876;2022-12-18T11:53:45;36.38;;;16.00;;
27895;SDS011;15241;48.374;10.876;2022-12-18T11:58:57;31.42;;;16.87;;
27895;SDS011;15241;48.374;10.876;2022-12-18T12:04:25;36.63;;;16.80;;
27895;SDS011;15241;48.374;10.876;2022-12-18T12:09:46;35.20;;;16.40;;
27895;SDS011;15241;48.374;10.876;2022-12-18T12:14:54;34.92;;;17.17;;
27895;SDS011;15241;48.374;10.876;2022-12-18T12:19:57;37.63;;;16.82;;
27895;SDS011;15241;48.374;10.876;2022-12-18T12:25:18;36.48;;;16.52;;
27895;SDS011;15241;48.374;10.876;2022-12-18T12:30:24;36.00;;;17.23;;
27895;SDS011;15241;48.374;10.876;2022-12-18T12:35:29;32.93;;;15.65;;
27895;SDS011;15241;48.374;10.876;2022-12-18T12:40:39;38.25;;;17.42;;
27895;SDS011;15241;48.374;10.876;2022-12-18T12:45:44;38.25;;;16.93;;
27895;SDS011;15241;48.374;10.876;2022-12-18T12:50:45;33.70;;;15.78;;
27895;SDS011;15241;48.374;10.876;2022-12-18T12:55:45;39.83;;;17.87;;
27895;SDS011;15241;48.374;10.876;2022-12-18T13:00:46;38.58;;;16.97;;
27895;SDS011;15241;48.374;10.876;2022-12-18T13:05:48;37.60;;;16.52;;
27895;SDS011;15241;48.374;10.876;2022-12-18T13:10:49;38.17;;;17.17;;
27895;SDS011;15241;48.374;10.876;2022-12-18T13:16:02;38.50;;;16.77;;
27895;SDS011;15241;48.374;10.876;2022-12-18T13:21:03;33.98;;;16.85;;
27895;SDS011;15241;48.374;10.876;2022-12-18T13:42:37;37.73;;;16.40;;
27895;SDS011;15241;48.374;10.876;2022-12-18T13:47:37;33.77;;;14.47;;
27895;SDS011;15241;48.374;10.876;2022-12-18T13:52:37;34.95;;;16.77;;
27895;SDS011;15241;48.374;10.876;2022-12-18T13:57:37;38.02;;;16.57;;
27895;SDS011;15241;48.374;10.876;2022-12-18T14:02:36;38.23;;;16.40;;
27895;SDS011;15241;48.374;10.876;2022-12-18T14:07:35;34.85;;;15.48;;
27895;SDS011;15241;48.374;10.876;2022-12-18T14:12:35;34.05;;;15.43;;
27895;SDS011;15241;48.374;10.876;2022-12-18T14:17:34;33.08;;;15.48;;
27895;SDS011;15241;48.374;10.876;2022-12-18T14:22:34;34.78;;;15.38;;
27895;SDS011;15241;48.374;10.876;2022-12-18T14:27:37;34.45;;;15.48;;
27895;SDS011;15241;48.374;10.876;2022-12-18T14:32:44;37.45;;;16.82;;
27895;SDS011;15241;48.374;10.876;2022-12-18T14:38:10;33.00;;;15.18;;
27895;SDS011;15241;48.374;10.876;2022-12-18T14:43:20;32.45;;;16.07;;
27895;SDS011;15241;48.374;10.876;2022-12-18T14:48:20;35.75;;;15.48;;
27895;SDS011;15241;48.374;10.876;2022-12-18T14:53:21;37.50;;;16.02;;
27895;SDS011;15241;48.374;10.876;2022-12-18T14:58:22;35.13;;;16.02;;
27895;SDS011;15241;48.374;10.876;2022-12-18T15:03:21;39.92;;;16.17;;
27895;SDS011;15241;48.374;10.876;2022-12-18T15:08:29;39.05;;;16.75;;
27895;SDS011;15241;48.374;10.876;2022-12-18T15:13:30;35.85;;;15.25;;
27895;SDS011;15241;48.374;10.876;2022-12-18T15:18:30;31.90;;;14.98;;
27895;SDS011;15241;48.374;10.876;2022-12-18T15:23:33;39.60;;;17.37;;
27895;SDS011;15241;48.374;10.876;2022-12-18T15:28:35;38.10;;;17.05;;
27895;SDS011;15241;48.374;10.876;2022-12-18T15:33:36;47.13;;;19.00;;
27895;SDS011;15241;48.374;10.876;2022-12-18T15:38:36;41.55;;;17.82;;
27895;SDS011;15241;48.374;10.876;2022-12-18T15:43:37;44.50;;;17.98;;
27895;SDS011;15241;48.374;10.876;2022-12-18T15:48:37;48.70;;;19.55;;
27895;SDS011;15241;48.374;10.876;2022-12-18T15:53:37;45.73;;;18.15;;
27895;SDS011;15241;48.374;10.876;2022-12-18T15:58:38;39.83;;;17.07;;
27895;SDS011;15241;48.374;10.876;2022-12-18T16:03:37;37.55;;;17.42;;
27895;SDS011;15241;48.374;10.876;2022-12-18T16:08:36;43.40;;;18.57;;
27895;SDS011;15241;48.374;10.876;2022-12-18T16:13:36;46.37;;;19.57;;
27895;SDS011;15241;48.374;10.876;2022-12-18T16:18:35;47.90;;;19.37;;
27895;SDS011;15241;48.374;10.876;2022-12-18T16:23:34;43.08;;;18.20;;
27895;SDS011;15241;48.374;10.876;2022-12-18T16:28:33;50.20;;;19.40;;
27895;SDS011;15241;48.374;10.876;2022-12-18T16:33:32;42.27;;;18.70;;
27895;SDS011;15241;48.374;10.876;2022-12-18T16:38:30;52.60;;;20.92;;
27895;SDS011;15241;48.374;10.876;2022-12-18T16:43:30;45.63;;;20.05;;
27895;SDS011;15241;48.374;10.876;2022-12-18T16:48:29;42.13;;;19.12;;
27895;SDS011;15241;48.374;10.876;2022-12-18T16:53:28;49.00;;;21.02;;
27895;SDS011;15241;48.374;10.876;2022-12-18T16:58:27;47.70;;;19.45;;
27895;SDS011;15241;48.374;10.876;2022-12-18T17:03:26;49.27;;;19.82;;
27895;SDS011;15241;48.374;10.876;2022-12-18T17:08:25;48.10;;;19.00;;
27895;SDS011;15241;48.374;10.876;2022-12-18T17:13:26;47.45;;;19.55;;
27895;SDS011;15241;48.374;10.876;2022-12-18T17:18:24;40.63;;;18.30;;
27895;SDS011;15241;48.374;10.876;2022-12-18T17:23:24;47.20;;;18.52;;
27895;SDS011;15241;48.374;10.876;2022-12-18T17:28:23;47.35;;;21.42;;
27895;SDS011;15241;48.374;10.876;2022-12-18T17:33:24;47.78;;;20.17;;
27895;SDS011;15241;48.374;10.876;2022-12-18T17:38:23;46.13;;;20.60;;
27895;SDS011;15241;48.374;10.876;2022-12-18T17:43:22;53.90;;;20.23;;
27895;SDS011;15241;48.374;10.876;2022-12-18T17:48:21;46.42;;;19.45;;
27895;SDS011;15241;48.374;10.876;2022-12-18T17:53:20;52.65;;;21.60;;
27895;SDS011;15241;48.374;10.876;2022-12-18T17:58:19;49.53;;;21.80;;
27895;SDS011;15241;48.374;10.876;2022-12-18T18:03:18;45.25;;;19.92;;
27895;SDS011;15241;48.374;10.876;2022-12-18T18:08:17;48.15;;;20.37;;
27895;SDS011;15241;48.374;10.876;2022-12-18T18:13:17;41.35;;;18.20;;
27895;SDS011;15241;48.374;10.876;2022-12-18T18:18:17;45.28;;;21.02;;
27895;SDS011;15241;48.374;10.876;2022-12-18T18:23:16;46.02;;;19.70;;
27895;SDS011;15241;48.374;10.876;2022-12-18T18:28:15;49.20;;;21.12;;
27895;SDS011;15241;48.374;10.876;2022-12-18T18:33:14;44.18;;;20.30;;
27895;SDS011;15241;48.374;10.876;2022-12-18T18:38:13;44.42;;;20.32;;
27895;SDS011;15241;48.374;10.876;2022-12-18T18:43:12;45.60;;;17.23;;
27895;SDS011;15241;48.374;10.876;2022-12-18T18:48:11;48.85;;;20.80;;
27895;SDS011;15241;48.374;10.876;2022-12-18T18:53:10;41.88;;;19.65;;
27895;SDS011;15241;48.374;10.876;2022-12-18T18:58:09;47.90;;;21.10;;
27895;SDS011;15241;48.374;10.876;2022-12-18T19:03:08;54.42;;;20.40;;
27895;SDS011;15241;48.374;10.876;2022-12-18T19:08:07;45.38;;;20.35;;
27895;SDS011;15241;48.374;10.876;2022-12-18T19:13:08;44.10;;;20.20;;
27895;SDS011;15241;48.374;10.876;2022-12-18T19:18:08;48.23;;;20.00;;
27895;SDS011;15241;48.374;10.876;2022-12-18T19:23:07;50.05;;;21.07;;
27895;SDS011;15241;48.374;10.876;2022-12-18T19:28:07;43.13;;;19.32;;
27895;SDS011;15241;48.374;10.876;2022-12-18T19:33:09;43.15;;;20.25;;
27895;SDS011;15241;48.374;10.876;2022-12-18T19:38:08;46.63;;;20.60;;
27895;SDS011;15241;48.374;10.876;2022-12-18T19:43:08;43.00;;;21.02;;
27895;SDS011;15241;48.374;10.876;2022-12-18T19:48:08;49.63;;;20.10;;
27895;SDS011;15241;48.374;10.876;2022-12-18T19:53:08;46.90;;;20.45;;
27895;SDS011;15241;48.374;10.876;2022-12-18T19:58:07;48.42;;;19.20;;
27895;SDS011;15241;48.374;10.876;2022-12-18T20:03:06;49.60;;;20.40;;
27895;SDS011;15241;48.374;10.876;2022-12-18T20:08:05;47.45;;;20.57;;
27895;SDS011;15241;48.374;10.876;2022-12-18T20:13:03;48.42;;;19.50;;
27895;SDS011;15241;48.374;10.876;2022-12-18T20:18:03;50.48;;;21.52;;
27895;SDS011;15241;48.374;10.876;2022-12-18T20:23:02;56.18;;;23.10;;
27895;SDS011;15241;48.374;10.876;2022-12-18T20:28:01;55.43;;;22.50;;
27895;SDS011;15241;48.374;10.876;2022-12-18T20:33:01;53.87;;;20.95;;
27895;SDS011;15241;48.374;10.876;2022-12-18T20:38:02;53.05;;;21.73;;
27895;SDS011;15241;48.374;10.876;2022-12-18T20:43:04;42.75;;;19.35;;
27895;SDS011;15241;48.374;10.876;2022-12-18T20:48:04;51.20;;;18.48;;
27895;SDS011;15241;48.374;10.876;2022-12-18T20:53:04;47.55;;;20.65;;
27895;SDS011;15241;48.374;10.876;2022-12-18T20:58:11;43.28;;;18.70;;
27895;SDS011;15241;48.374;10.876;2022-12-18T21:08:16;58.33;;;22.45;;
27895;SDS011;15241;48.374;10.876;2022-12-18T21:13:15;50.12;;;20.32;;
27895;SDS011;15241;48.374;10.876;2022-12-18T21:18:14;53.75;;;20.20;;
27895;SDS011;15241;48.374;10.876;2022-12-18T21:23:13;49.73;;;19.73;;
27895;SDS011;15241;48.374;10.876;2022-12-18T21:28:12;51.05;;;20.65;;
27895;SDS011;15241;48.374;10.876;2022-12-18T21:33:11;49.27;;;19.23;;
27895;SDS011;15241;48.374;10.876;2022-12-18T21:38:10;53.05;;;19.95;;
27895;SDS011;15241;48.374;10.876;2022-12-18T21:43:08;46.18;;;20.40;;
27895;SDS011;15241;48.374;10.876;2022-12-18T21:48:07;44.27;;;19.57;;
27895;SDS011;15241;48.374;10.876;2022-12-18T21:53:06;50.85;;;19.50;;
27895;SDS011;15241;48.374;10.876;2022-12-18T21:58:05;49.85;;;18.92;;
27895;SDS011;15241;48.374;10.876;2022-12-18T22:03:04;47.03;;;19.23;;
27895;SDS011;15241;48.374;10.876;2022-12-18T22:08:03;46.48;;;19.45;;
27895;SDS011;15241;48.374;10.876;2022-12-18T22:13:02;47.25;;;18.55;;
27895;SDS011;15241;48.374;10.876;2022-12-18T22:18:02;44.73;;;19.12;;
27895;SDS011;15241;48.374;10.876;2022-12-18T22:23:01;43.35;;;16.73;;
27895;SDS011;15241;48.374;10.876;2022-12-18T22:28:00;45.33;;;19.85;;
27895;SDS011;15241;48.374;10.876;2022-12-18T22:32:59;44.73;;;18.12;;
27895;SDS011;15241;48.374;10.876;2022-12-18T22:37:58;42.85;;;18.23;;
27895;SDS011;15241;48.374;10.876;2022-12-18T22:42:57;45.60;;;18.75;;
27895;SDS011;15241;48.374;10.876;2022-12-18T22:47:56;41.28;;;17.82;;
27895;SDS011;15241;48.374;10.876;2022-12-18T22:52:55;47.48;;;20.90;;
27895;SDS011;15241;48.374;10.876;2022-12-18T22:57:54;52.33;;;21.17;;
27895;SDS011;15241;48.374;10.876;2022-12-18T23:02:53;48.28;;;20.50;;
27895;SDS011;15241;48.374;10.876;2022-12-18T23:07:52;56.85;;;22.67;;
27895;SDS011;15241;48.374;10.876;2022-12-18T23:12:51;50.67;;;20.05;;
27895;SDS011;15241;48.374;10.876;2022-12-18T23:17:49;51.55;;;21.75;;
27895;SDS011;15241;48.374;10.876;2022-12-18T23:22:48;47.13;;;20.25;;
27895;SDS011;15241;48.374;10.876;2022-12-18T23:27:47;51.00;;;21.27;;
27895;SDS011;15241;48.374;10.876;2022-12-18T23:32:46;47.08;;;21.10;;
27895;SDS011;15241;48.374;10.876;2022-12-18T23:37:46;53.10;;;21.60;;
27895;SDS011;15241;48.374;10.876;2022-12-18T23:42:45;52.48;;;21.62;;
27895;SDS011;15241;48.374;10.876;2022-12-18T23:47:44;56.25;;;23.85;;
27895;SDS011;15241;48.374;10.876;2022-12-18T23:52:43;55.88;;;22.15;;
27895;SDS011;15241;48.374;10.876;2022-12-18T23:57:42;56.15;;;21.93;;
